Flight Track Log - Related Links

Times and Time Zones

All times are in EDT time to prevent confusion due to time zone crossing. See the VH-OZO flight status page for this flight to view local times or setup timezone preferences in your user account.

Time Position Orientation Groundspeed Altitude Reporting Facility
EDT Latitude Longitude Course Direction KTS MPH feet Rate Location/Type
Fri 04:18:00 AM -33.8769 115.1190 23° Northeast 6,500  Level Aus ATC (Calculated)
Fri 04:18:47 AM -33.8769 115.1190 23° Northeast 6,500 -190 Level Aus ATC (Calculated)
Fri 04:20:00 AM -33.8280 115.1431 22° Northeast  Level FlightAware Approximate
Fri 04:21:00 AM -33.7879 115.1628 22° Northeast  Level FlightAware Approximate
Fri 04:21:41 AM -33.8365 115.1402 22° Northeast 121 139 5,800  Level Aus ATC (RADAR)
Fri 04:22:06 AM -33.8231 115.1440 13° North 118 136 6,100 800 Climbing Aus ATC (RADAR)
Fri 04:22:41 AM -33.8046 115.1507 17° North 118 136 6,600 635 Climbing Aus ATC (RADAR)
Fri 04:23:31 AM -33.7761 115.1633 20° North 133 153 7,000 353 Climbing Aus ATC (RADAR)
Fri 04:24:06 AM -33.7536 115.1733 20° North 149 171 7,100 71 Climbing Aus ATC (RADAR)
Fri 04:24:56 AM -33.7192 115.1939 26° Northeast 167 192 7,100  Level Aus ATC (RADAR)
Fri 04:25:21 AM -33.7004 115.2017 19° North 171 197 7,100  Level Aus ATC (RADAR)
Fri 04:25:56 AM -33.6734 115.2148 22° Northeast 180 207 7,100  Level Aus ATC (RADAR)
Fri 04:26:46 AM -33.6353 115.2358 25° Northeast 182 209 7,100  Level Aus ATC (RADAR)
Fri 04:27:11 AM -33.6166 115.2472 27° Northeast 180 207 7,100  Level Aus ATC (RADAR)
Fri 04:27:46 AM -33.5898 115.2584 19° North 173 199 7,100  Level Aus ATC (RADAR)
Fri 04:28:31 AM -33.5580 115.2738 22° Northeast 165 190 7,100  Level Aus ATC (RADAR)
Fri 04:29:06 AM -33.5321 115.2849 20° North 169 194 7,100  Level Aus ATC (RADAR)
Fri 04:29:56 AM -33.4952 115.3012 20° North 170 196 7,100  Level Aus ATC (RADAR)
Fri 04:30:21 AM -33.4770 115.3097 21° North 169 194 7,100  Level Aus ATC (RADAR)
Fri 04:30:56 AM -33.4539 115.3275 33° Northeast 169 194 7,100  Level Aus ATC (RADAR)
Fri 04:32:01 AM -33.4052 115.3478 19° North 173 199 7,100  Level Aus ATC (RADAR)
Fri 04:32:31 AM -33.3851 115.3624 31° Northeast 166 191 7,100  Level Aus ATC (RADAR)
Fri 04:33:06 AM -33.3589 115.3732 19° North 166 191 7,100  Level Aus ATC (RADAR)
Fri 04:33:50 AM -33.3262 115.3902 24° Northeast 168 193 7,100  Level Aus ATC (RADAR)
Fri 04:34:25 AM -33.3015 115.4056 28° Northeast 168 193 7,100  Level Aus ATC (RADAR)
Fri 04:35:15 AM -33.2647 115.4235 22° Northeast 172 198 7,100  Level Aus ATC (RADAR)
Fri 04:35:40 AM -33.2468 115.4325 23° Northeast 167 192 7,100  Level Aus ATC (RADAR)
Fri 04:36:15 AM -33.2213 115.4452 23° Northeast 165 190 7,100  Level Aus ATC (RADAR)
Fri 04:37:10 AM -33.1806 115.4643 21° North 168 193 7,100  Level Aus ATC (RADAR)
Fri 04:37:35 AM -33.1623 115.4728 21° North 168 193 7,100  Level Aus ATC (RADAR)
Fri 04:38:10 AM -33.1374 115.4869 25° Northeast 168 193 7,100  Level Aus ATC (RADAR)
Fri 04:38:50 AM -33.1076 115.5007 21° North 174 200 7,100  Level Aus ATC (RADAR)
Fri 04:39:20 AM -33.0858 115.5101 20° North 165 190 7,100  Level Aus ATC (RADAR)
Fri 04:40:00 AM -33.0569 115.5245 23° Northeast 163 188 7,100  Level Aus ATC (RADAR)
Fri 04:40:35 AM -33.0319 115.5388 26° Northeast 166 191 7,100  Level Aus ATC (RADAR)
Fri 04:41:10 AM -33.0054 115.5489 18° North 168 193 7,100  Level Aus ATC (RADAR)
Fri 04:42:15 AM -32.9577 115.5734 23° Northeast 176 203 7,100  Level Aus ATC (RADAR)
Fri 04:42:44 AM -32.9364 115.5856 26° Northeast 165 190 7,100  Level Aus ATC (RADAR)
Fri 04:43:19 AM -32.9099 115.5971 20° North 168 193 7,100  Level Aus ATC (RADAR)
Fri 04:43:59 AM -32.8804 115.6117 23° Northeast 170 196 7,100  Level Aus ATC (RADAR)
Fri 04:44:39 AM -32.8508 115.6267 23° Northeast 172 198 7,100  Level Aus ATC (RADAR)
Fri 04:45:24 AM -32.8171 115.6426 22° Northeast 176 203 7,100 -86 Level Aus ATC (RADAR)
Fri 04:45:49 AM -32.7983 115.6509 20° North 173 199 7,000 -300 Descending Aus ATC (RADAR)
Fri 04:46:24 AM -32.7700 115.6623 19° North 178 205 6,800 -480 Descending Aus ATC (RADAR)
Fri 04:47:29 AM -32.7177 115.6865 21° North 187 215 6,200 -525 Descending Aus ATC (RADAR)
Fri 04:47:44 AM -32.7054 115.6923 22° Northeast 189 217 6,100 -545 Descending Aus ATC (RADAR)
Fri 04:48:24 AM -32.6730 115.7056 19° North 187 215 5,700 -695 Descending Aus ATC (RADAR)
Fri 04:49:19 AM -32.6271 115.7191 14° North 184 212 5,000 -758 Descending Aus ATC (RADAR)
Fri 04:49:59 AM -32.5937 115.7299 15° North 187 215 4,500 -706 Descending Aus ATC (RADAR)
Fri 04:50:44 AM -32.5568 115.7437 17° North 186 214 4,000 -675 Descending Aus ATC (RADAR)
Fri 04:51:19 AM -32.5286 115.7565 21° North 187 215 3,600 -571 Descending Aus ATC (RADAR)
Fri 04:52:29 AM -32.4741 115.7785 19° North 175 201 3,000 -505 Descending Aus ATC (RADAR)
Fri 04:52:54 AM -32.4552 115.7866 20° North 172 198 2,800 -200 Descending Aus ATC (RADAR)
Fri 04:53:29 AM -32.4291 115.7986 21° North 170 196 2,800  Level Aus ATC (RADAR)
Fri 04:54:19 AM -32.3937 115.8149 21° North 162 186 2,800  Level Aus ATC (RADAR)
Fri 04:54:48 AM -32.3737 115.8247 23° Northeast 157 181 2,800  Level Aus ATC (RADAR)
Fri 04:55:38 AM -32.3406 115.8398 21° North 153 176 2,800  Level Aus ATC (RADAR)
Fri 04:56:03 AM -32.3244 115.8478 22° Northeast 152 175 2,800 -700 Level Aus ATC (RADAR)
Fri 04:56:38 AM -32.3001 115.8630 28° Northeast 170 196 2,100 -750 Descending Aus ATC (RADAR)
Fri 04:57:23 AM -32.2683 115.8840 29° Northeast 172 198 1,800 -429 Descending Aus ATC (RADAR)
Fri 04:57:48 AM -32.2512 115.8952 29° Northeast 170 196 1,600 -300 Descending Aus ATC (RADAR)
Fri 04:58:23 AM -32.2275 115.9096 27° Northeast 165 190 1,500  Descending Aus ATC (RADAR)
Fri 04:59:18 AM -32.1937 115.9278 25° Northeast 142 163 1,600 71 Climbing Aus ATC (RADAR)
Fri 04:59:48 AM -32.1760 115.9363 22° Northeast 135 155 1,600 -300 Level Aus ATC (RADAR)
Fri 05:00:38 AM -32.1434 115.9367 North 145 167 1,200 -400 Descending Aus ATC (RADAR)
Fri 05:01:03 AM -32.1284 115.9293 337° Northwest 139 160 1,100 -500 Descending Aus ATC (RADAR)
Fri 05:01:38 AM -32.1144 115.9124 314° West 125 144 700 -565 Descending Aus ATC (RADAR)
Fri 05:02:28 AM -32.1057 115.8867 292° West 89 102 300 -480 Descending Aus ATC (RADAR)

Login

Don't have an account? Register now (free) for customized features, flight alerts, and more!